sensor_id;sensor_type;location;lat;lon;timestamp;P1;durP1;ratioP1;P2;durP2;ratioP2
15055;SDS011;7626;42.674;23.284;2023-07-29T00:00:50;2.78;;;2.58;;
15055;SDS011;7626;42.674;23.284;2023-07-29T00:03:16;3.30;;;2.70;;
15055;SDS011;7626;42.674;23.284;2023-07-29T00:05:43;3.80;;;2.75;;
15055;SDS011;7626;42.674;23.284;2023-07-29T00:08:09;2.97;;;2.67;;
15055;SDS011;7626;42.674;23.284;2023-07-29T00:10:36;3.13;;;2.83;;
15055;SDS011;7626;42.674;23.284;2023-07-29T00:13:04;2.95;;;2.60;;
15055;SDS011;7626;42.674;23.284;2023-07-29T00:15:31;2.95;;;2.65;;
15055;SDS011;7626;42.674;23.284;2023-07-29T00:17:57;3.08;;;2.78;;
15055;SDS011;7626;42.674;23.284;2023-07-29T00:20:24;2.85;;;2.65;;
15055;SDS011;7626;42.674;23.284;2023-07-29T00:22:50;2.95;;;2.75;;
15055;SDS011;7626;42.674;23.284;2023-07-29T00:25:19;2.85;;;2.65;;
15055;SDS011;7626;42.674;23.284;2023-07-29T00:27:45;2.70;;;2.50;;
15055;SDS011;7626;42.674;23.284;2023-07-29T00:30:13;2.63;;;2.20;;
15055;SDS011;7626;42.674;23.284;2023-07-29T00:32:39;3.10;;;2.80;;
15055;SDS011;7626;42.674;23.284;2023-07-29T00:35:06;3.53;;;2.70;;
15055;SDS011;7626;42.674;23.284;2023-07-29T00:37:33;2.85;;;2.65;;
15055;SDS011;7626;42.674;23.284;2023-07-29T00:39:59;2.50;;;2.30;;
15055;SDS011;7626;42.674;23.284;2023-07-29T00:42:26;3.33;;;2.60;;
15055;SDS011;7626;42.674;23.284;2023-07-29T00:44:52;2.70;;;2.50;;
15055;SDS011;7626;42.674;23.284;2023-07-29T00:47:20;3.05;;;2.50;;
15055;SDS011;7626;42.674;23.284;2023-07-29T00:49:48;2.95;;;2.65;;
15055;SDS011;7626;42.674;23.284;2023-07-29T00:52:15;3.90;;;2.85;;
15055;SDS011;7626;42.674;23.284;2023-07-29T00:54:41;2.90;;;2.60;;
15055;SDS011;7626;42.674;23.284;2023-07-29T00:57:08;2.63;;;2.33;;
15055;SDS011;7626;42.674;23.284;2023-07-29T00:59:35;3.33;;;2.67;;
15055;SDS011;7626;42.674;23.284;2023-07-29T01:02:02;2.83;;;2.63;;
15055;SDS011;7626;42.674;23.284;2023-07-29T01:04:31;3.05;;;2.67;;
15055;SDS011;7626;42.674;23.284;2023-07-29T01:06:58;2.83;;;2.47;;
15055;SDS011;7626;42.674;23.284;2023-07-29T01:09:30;2.50;;;2.30;;
15055;SDS011;7626;42.674;23.284;2023-07-29T01:12:01;3.08;;;2.60;;
15055;SDS011;7626;42.674;23.284;2023-07-29T01:14:34;2.63;;;2.42;;
15055;SDS011;7626;42.674;23.284;2023-07-29T01:17:03;3.70;;;2.55;;
15055;SDS011;7626;42.674;23.284;2023-07-29T01:19:39;2.63;;;2.42;;
15055;SDS011;7626;42.674;23.284;2023-07-29T01:22:08;2.78;;;2.58;;
15055;SDS011;7626;42.674;23.284;2023-07-29T01:24:37;3.20;;;2.90;;
15055;SDS011;7626;42.674;23.284;2023-07-29T01:27:04;2.47;;;2.28;;
15055;SDS011;7626;42.674;23.284;2023-07-29T01:29:31;2.63;;;2.42;;
15055;SDS011;7626;42.674;23.284;2023-07-29T01:31:59;2.50;;;2.30;;
15055;SDS011;7626;42.674;23.284;2023-07-29T01:34:28;2.60;;;2.40;;
15055;SDS011;7626;42.674;23.284;2023-07-29T01:36:56;2.70;;;2.45;;
15055;SDS011;7626;42.674;23.284;2023-07-29T01:39:23;2.10;;;2.00;;
15055;SDS011;7626;42.674;23.284;2023-07-29T01:41:53;3.17;;;2.60;;
15055;SDS011;7626;42.674;23.284;2023-07-29T01:44:19;2.55;;;2.35;;
15055;SDS011;7626;42.674;23.284;2023-07-29T01:46:46;2.65;;;2.45;;
15055;SDS011;7626;42.674;23.284;2023-07-29T01:49:13;3.13;;;2.42;;
15055;SDS011;7626;42.674;23.284;2023-07-29T01:51:39;2.80;;;2.60;;
15055;SDS011;7626;42.674;23.284;2023-07-29T01:54:06;2.78;;;2.25;;
15055;SDS011;7626;42.674;23.284;2023-07-29T01:56:32;2.88;;;2.40;;
15055;SDS011;7626;42.674;23.284;2023-07-29T01:59:00;2.50;;;2.30;;
15055;SDS011;7626;42.674;23.284;2023-07-29T02:01:27;2.42;;;2.22;;
15055;SDS011;7626;42.674;23.284;2023-07-29T02:03:54;2.83;;;2.63;;
15055;SDS011;7626;42.674;23.284;2023-07-29T02:06:20;2.90;;;2.60;;
15055;SDS011;7626;42.674;23.284;2023-07-29T02:08:47;2.35;;;2.15;;
15055;SDS011;7626;42.674;23.284;2023-07-29T02:11:13;2.45;;;2.25;;
15055;SDS011;7626;42.674;23.284;2023-07-29T02:13:40;3.42;;;2.90;;
15055;SDS011;7626;42.674;23.284;2023-07-29T02:16:08;3.72;;;3.42;;
15055;SDS011;7626;42.674;23.284;2023-07-29T02:18:35;3.60;;;3.30;;
15055;SDS011;7626;42.674;23.284;2023-07-29T02:21:02;3.40;;;3.10;;
15055;SDS011;7626;42.674;23.284;2023-07-29T02:23:29;3.20;;;2.90;;
15055;SDS011;7626;42.674;23.284;2023-07-29T02:25:56;3.10;;;2.83;;
15055;SDS011;7626;42.674;23.284;2023-07-29T02:28:22;3.85;;;3.13;;
15055;SDS011;7626;42.674;23.284;2023-07-29T02:30:54;3.75;;;3.45;;
15055;SDS011;7626;42.674;23.284;2023-07-29T02:33:36;5.20;;;4.65;;
15055;SDS011;7626;42.674;23.284;2023-07-29T02:36:02;5.18;;;4.43;;
15055;SDS011;7626;42.674;23.284;2023-07-29T02:38:29;4.88;;;4.45;;
15055;SDS011;7626;42.674;23.284;2023-07-29T02:40:55;4.65;;;4.20;;
15055;SDS011;7626;42.674;23.284;2023-07-29T02:43:22;4.18;;;3.78;;
15055;SDS011;7626;42.674;23.284;2023-07-29T02:45:48;4.82;;;4.40;;
15055;SDS011;7626;42.674;23.284;2023-07-29T02:48:15;4.28;;;3.90;;
15055;SDS011;7626;42.674;23.284;2023-07-29T02:50:43;4.40;;;3.65;;
15055;SDS011;7626;42.674;23.284;2023-07-29T02:53:09;4.07;;;3.65;;
15055;SDS011;7626;42.674;23.284;2023-07-29T02:55:39;4.13;;;3.72;;
15055;SDS011;7626;42.674;23.284;2023-07-29T02:58:05;4.75;;;4.22;;
15055;SDS011;7626;42.674;23.284;2023-07-29T03:00:32;6.13;;;4.70;;
15055;SDS011;7626;42.674;23.284;2023-07-29T03:02:58;4.72;;;4.32;;
15055;SDS011;7626;42.674;23.284;2023-07-29T03:05:26;5.57;;;4.50;;
15055;SDS011;7626;42.674;23.284;2023-07-29T03:07:54;4.97;;;4.50;;
15055;SDS011;7626;42.674;23.284;2023-07-29T03:10:21;4.72;;;3.65;;
15055;SDS011;7626;42.674;23.284;2023-07-29T03:12:48;3.83;;;3.53;;
15055;SDS011;7626;42.674;23.284;2023-07-29T03:15:14;4.38;;;3.97;;
15055;SDS011;7626;42.674;23.284;2023-07-29T03:17:41;4.55;;;3.75;;
15055;SDS011;7626;42.674;23.284;2023-07-29T03:20:08;4.28;;;3.88;;
15055;SDS011;7626;42.674;23.284;2023-07-29T03:22:34;4.32;;;3.83;;
15055;SDS011;7626;42.674;23.284;2023-07-29T03:25:02;4.95;;;3.75;;
15055;SDS011;7626;42.674;23.284;2023-07-29T03:27:30;4.00;;;3.63;;
15055;SDS011;7626;42.674;23.284;2023-07-29T03:29:58;3.83;;;3.53;;
15055;SDS011;7626;42.674;23.284;2023-07-29T03:32:25;4.07;;;3.67;;
15055;SDS011;7626;42.674;23.284;2023-07-29T03:34:51;4.57;;;3.65;;
15055;SDS011;7626;42.674;23.284;2023-07-29T03:37:18;3.65;;;3.35;;
15055;SDS011;7626;42.674;23.284;2023-07-29T03:39:44;3.83;;;3.50;;
15055;SDS011;7626;42.674;23.284;2023-07-29T03:42:12;3.60;;;3.30;;
15055;SDS011;7626;42.674;23.284;2023-07-29T03:44:39;5.03;;;3.50;;
15055;SDS011;7626;42.674;23.284;2023-07-29T03:47:05;4.38;;;3.40;;
15055;SDS011;7626;42.674;23.284;2023-07-29T03:49:32;3.97;;;3.58;;
15055;SDS011;7626;42.674;23.284;2023-07-29T03:51:58;3.65;;;3.35;;
15055;SDS011;7626;42.674;23.284;2023-07-29T03:54:25;4.90;;;3.22;;
15055;SDS011;7626;42.674;23.284;2023-07-29T03:56:51;4.18;;;3.60;;
15055;SDS011;7626;42.674;23.284;2023-07-29T03:59:19;4.07;;;3.58;;
15055;SDS011;7626;42.674;23.284;2023-07-29T04:01:47;3.42;;;3.08;;
15055;SDS011;7626;42.674;23.284;2023-07-29T04:04:14;3.85;;;3.33;;
15055;SDS011;7626;42.674;23.284;2023-07-29T04:06:41;3.85;;;3.55;;
15055;SDS011;7626;42.674;23.284;2023-07-29T04:09:07;3.45;;;3.15;;
15055;SDS011;7626;42.674;23.284;2023-07-29T04:11:34;3.53;;;3.22;;
15055;SDS011;7626;42.674;23.284;2023-07-29T04:14:00;3.85;;;3.42;;
15055;SDS011;7626;42.674;23.284;2023-07-29T04:16:28;4.53;;;3.20;;
15055;SDS011;7626;42.674;23.284;2023-07-29T04:18:55;3.95;;;3.30;;
15055;SDS011;7626;42.674;23.284;2023-07-29T04:21:21;4.20;;;3.40;;
15055;SDS011;7626;42.674;23.284;2023-07-29T04:23:48;4.13;;;3.25;;
15055;SDS011;7626;42.674;23.284;2023-07-29T04:26:14;3.60;;;3.28;;
15055;SDS011;7626;42.674;23.284;2023-07-29T04:28:41;3.90;;;3.20;;
15055;SDS011;7626;42.674;23.284;2023-07-29T04:31:08;5.13;;;3.40;;
15055;SDS011;7626;42.674;23.284;2023-07-29T04:33:36;3.60;;;3.15;;
15055;SDS011;7626;42.674;23.284;2023-07-29T04:36:02;3.22;;;2.92;;
15055;SDS011;7626;42.674;23.284;2023-07-29T04:38:30;3.28;;;2.88;;
15055;SDS011;7626;42.674;23.284;2023-07-29T04:40:56;3.40;;;3.10;;
15055;SDS011;7626;42.674;23.284;2023-07-29T04:43:26;3.15;;;2.85;;
15055;SDS011;7626;42.674;23.284;2023-07-29T04:45:52;3.25;;;2.92;;
15055;SDS011;7626;42.674;23.284;2023-07-29T04:48:19;3.75;;;3.10;;
15055;SDS011;7626;42.674;23.284;2023-07-29T04:50:47;4.88;;;3.30;;
15055;SDS011;7626;42.674;23.284;2023-07-29T04:53:13;3.20;;;2.90;;
15055;SDS011;7626;42.674;23.284;2023-07-29T04:55:41;3.65;;;3.17;;
15055;SDS011;7626;42.674;23.284;2023-07-29T04:58:07;3.40;;;3.13;;
15055;SDS011;7626;42.674;23.284;2023-07-29T05:00:34;4.60;;;3.20;;
15055;SDS011;7626;42.674;23.284;2023-07-29T05:03:00;3.13;;;2.83;;
15055;SDS011;7626;42.674;23.284;2023-07-29T05:05:27;3.25;;;2.95;;
15055;SDS011;7626;42.674;23.284;2023-07-29T05:07:55;3.63;;;3.13;;
15055;SDS011;7626;42.674;23.284;2023-07-29T05:10:21;4.07;;;3.13;;
15055;SDS011;7626;42.674;23.284;2023-07-29T05:12:48;3.58;;;2.75;;
15055;SDS011;7626;42.674;23.284;2023-07-29T05:15:14;3.53;;;3.03;;
15055;SDS011;7626;42.674;23.284;2023-07-29T05:17:41;3.05;;;2.85;;
15055;SDS011;7626;42.674;23.284;2023-07-29T05:20:08;3.33;;;3.03;;
15055;SDS011;7626;42.674;23.284;2023-07-29T05:22:35;3.30;;;2.80;;
15055;SDS011;7626;42.674;23.284;2023-07-29T05:25:03;3.33;;;2.80;;
15055;SDS011;7626;42.674;23.284;2023-07-29T05:27:29;3.92;;;3.30;;
15055;SDS011;7626;42.674;23.284;2023-07-29T05:29:56;3.30;;;3.00;;
15055;SDS011;7626;42.674;23.284;2023-07-29T05:32:22;3.60;;;3.20;;
15055;SDS011;7626;42.674;23.284;2023-07-29T05:34:49;3.75;;;3.42;;
15055;SDS011;7626;42.674;23.284;2023-07-29T05:37:15;3.50;;;3.20;;
15055;SDS011;7626;42.674;23.284;2023-07-29T05:39:42;3.38;;;2.83;;
15055;SDS011;7626;42.674;23.284;2023-07-29T05:42:09;3.40;;;3.10;;
15055;SDS011;7626;42.674;23.284;2023-07-29T05:44:36;3.20;;;2.90;;
15055;SDS011;7626;42.674;23.284;2023-07-29T05:47:02;3.28;;;2.83;;
15055;SDS011;7626;42.674;23.284;2023-07-29T05:49:29;3.60;;;3.03;;
15055;SDS011;7626;42.674;23.284;2023-07-29T05:51:55;3.22;;;2.83;;
15055;SDS011;7626;42.674;23.284;2023-07-29T05:54:22;3.30;;;3.00;;
15055;SDS011;7626;42.674;23.284;2023-07-29T05:56:48;4.13;;;3.05;;
15055;SDS011;7626;42.674;23.284;2023-07-29T05:59:16;3.67;;;2.95;;
15055;SDS011;7626;42.674;23.284;2023-07-29T06:01:43;3.30;;;3.00;;
15055;SDS011;7626;42.674;23.284;2023-07-29T06:04:09;2.92;;;2.72;;
15055;SDS011;7626;42.674;23.284;2023-07-29T06:06:36;3.75;;;3.00;;
15055;SDS011;7626;42.674;23.284;2023-07-29T06:09:02;3.72;;;3.30;;
15055;SDS011;7626;42.674;23.284;2023-07-29T06:11:29;3.25;;;2.95;;
15055;SDS011;7626;42.674;23.284;2023-07-29T06:13:56;3.45;;;3.15;;
15055;SDS011;7626;42.674;23.284;2023-07-29T06:16:23;3.92;;;3.05;;
15055;SDS011;7626;42.674;23.284;2023-07-29T06:18:50;3.20;;;2.90;;
15055;SDS011;7626;42.674;23.284;2023-07-29T06:21:17;3.22;;;2.92;;
15055;SDS011;7626;42.674;23.284;2023-07-29T06:23:45;3.70;;;3.10;;
15055;SDS011;7626;42.674;23.284;2023-07-29T06:26:11;3.83;;;3.00;;
15055;SDS011;7626;42.674;23.284;2023-07-29T06:28:38;3.03;;;2.65;;
15055;SDS011;7626;42.674;23.284;2023-07-29T06:31:06;4.75;;;3.38;;
15055;SDS011;7626;42.674;23.284;2023-07-29T06:33:34;3.47;;;3.17;;
15055;SDS011;7626;42.674;23.284;2023-07-29T06:36:00;5.55;;;3.10;;
15055;SDS011;7626;42.674;23.284;2023-07-29T06:38:27;4.07;;;3.13;;
15055;SDS011;7626;42.674;23.284;2023-07-29T06:40:53;3.42;;;2.90;;
15055;SDS011;7626;42.674;23.284;2023-07-29T06:43:20;4.53;;;3.33;;
15055;SDS011;7626;42.674;23.284;2023-07-29T06:45:46;3.35;;;3.10;;
15055;SDS011;7626;42.674;23.284;2023-07-29T06:48:13;3.58;;;3.00;;
15055;SDS011;7626;42.674;23.284;2023-07-29T06:50:40;3.75;;;3.10;;
15055;SDS011;7626;42.674;23.284;2023-07-29T06:53:07;3.20;;;2.90;;
15055;SDS011;7626;42.674;23.284;2023-07-29T06:55:34;3.35;;;3.05;;
15055;SDS011;7626;42.674;23.284;2023-07-29T06:58:00;3.83;;;3.17;;
15055;SDS011;7626;42.674;23.284;2023-07-29T07:00:27;3.60;;;3.13;;
15055;SDS011;7626;42.674;23.284;2023-07-29T07:02:53;3.65;;;3.17;;
15055;SDS011;7626;42.674;23.284;2023-07-29T07:05:20;3.22;;;2.80;;
15055;SDS011;7626;42.674;23.284;2023-07-29T07:07:48;3.55;;;3.15;;
15055;SDS011;7626;42.674;23.284;2023-07-29T07:10:14;3.45;;;3.15;;
15055;SDS011;7626;42.674;23.284;2023-07-29T07:12:41;3.50;;;3.20;;
15055;SDS011;7626;42.674;23.284;2023-07-29T07:15:07;3.45;;;2.90;;
15055;SDS011;7626;42.674;23.284;2023-07-29T07:17:34;4.75;;;2.90;;
15055;SDS011;7626;42.674;23.284;2023-07-29T07:20:00;4.45;;;3.05;;
15055;SDS011;7626;42.674;23.284;2023-07-29T07:22:27;3.80;;;3.08;;
15055;SDS011;7626;42.674;23.284;2023-07-29T07:24:55;3.10;;;2.80;;
15055;SDS011;7626;42.674;23.284;2023-07-29T07:27:21;3.25;;;2.95;;
15055;SDS011;7626;42.674;23.284;2023-07-29T07:29:48;3.67;;;3.28;;
15055;SDS011;7626;42.674;23.284;2023-07-29T07:32:15;3.25;;;2.95;;
15055;SDS011;7626;42.674;23.284;2023-07-29T07:34:41;3.30;;;2.92;;
15055;SDS011;7626;42.674;23.284;2023-07-29T07:37:08;3.17;;;2.88;;
15055;SDS011;7626;42.674;23.284;2023-07-29T07:39:34;3.97;;;2.92;;
15055;SDS011;7626;42.674;23.284;2023-07-29T07:42:02;3.00;;;2.80;;
15055;SDS011;7626;42.674;23.284;2023-07-29T07:44:29;3.38;;;3.08;;
15055;SDS011;7626;42.674;23.284;2023-07-29T07:46:55;3.38;;;3.08;;
15055;SDS011;7626;42.674;23.284;2023-07-29T07:49:22;3.20;;;2.90;;
15055;SDS011;7626;42.674;23.284;2023-07-29T07:51:48;3.78;;;3.20;;
15055;SDS011;7626;42.674;23.284;2023-07-29T07:54:15;3.15;;;2.85;;
15055;SDS011;7626;42.674;23.284;2023-07-29T07:56:42;3.30;;;3.00;;
15055;SDS011;7626;42.674;23.284;2023-07-29T07:59:10;3.67;;;3.03;;
15055;SDS011;7626;42.674;23.284;2023-07-29T08:01:36;3.65;;;3.10;;
15055;SDS011;7626;42.674;23.284;2023-07-29T08:04:03;3.33;;;3.00;;
15055;SDS011;7626;42.674;23.284;2023-07-29T08:06:30;3.22;;;2.92;;
15055;SDS011;7626;42.674;23.284;2023-07-29T08:08:56;3.58;;;3.28;;
15055;SDS011;7626;42.674;23.284;2023-07-29T08:11:23;3.13;;;2.83;;
15055;SDS011;7626;42.674;23.284;2023-07-29T08:13:49;3.25;;;2.95;;
15055;SDS011;7626;42.674;23.284;2023-07-29T08:16:17;3.65;;;3.33;;
15055;SDS011;7626;42.674;23.284;2023-07-29T08:18:44;3.00;;;2.65;;
15055;SDS011;7626;42.674;23.284;2023-07-29T08:21:10;3.35;;;3.05;;
15055;SDS011;7626;42.674;23.284;2023-07-29T08:23:37;4.38;;;3.30;;
15055;SDS011;7626;42.674;23.284;2023-07-29T08:26:03;3.55;;;3.22;;
15055;SDS011;7626;42.674;23.284;2023-07-29T08:28:31;3.20;;;2.83;;
15055;SDS011;7626;42.674;23.284;2023-07-29T08:30:57;3.65;;;3.35;;
15055;SDS011;7626;42.674;23.284;2023-07-29T08:33:26;4.13;;;3.05;;
15055;SDS011;7626;42.674;23.284;2023-07-29T08:35:52;3.33;;;3.03;;
15055;SDS011;7626;42.674;23.284;2023-07-29T08:38:19;3.50;;;3.20;;
15055;SDS011;7626;42.674;23.284;2023-07-29T08:40:48;4.10;;;3.25;;
15055;SDS011;7626;42.674;23.284;2023-07-29T08:43:16;6.13;;;3.10;;
15055;SDS011;7626;42.674;23.284;2023-07-29T08:45:43;3.97;;;2.95;;
15055;SDS011;7626;42.674;23.284;2023-07-29T08:48:10;3.45;;;3.15;;
15055;SDS011;7626;42.674;23.284;2023-07-29T08:50:38;3.53;;;3.22;;
15055;SDS011;7626;42.674;23.284;2023-07-29T08:53:05;3.38;;;3.08;;
15055;SDS011;7626;42.674;23.284;2023-07-29T08:55:32;4.00;;;2.97;;
15055;SDS011;7626;42.674;23.284;2023-07-29T08:57:58;4.57;;;2.95;;
15055;SDS011;7626;42.674;23.284;2023-07-29T09:00:26;4.38;;;3.25;;
15055;SDS011;7626;42.674;23.284;2023-07-29T09:02:53;3.35;;;3.05;;
15055;SDS011;7626;42.674;23.284;2023-07-29T09:05:20;3.42;;;2.95;;
15055;SDS011;7626;42.674;23.284;2023-07-29T09:07:48;3.30;;;3.00;;
15055;SDS011;7626;42.674;23.284;2023-07-29T09:10:16;3.78;;;3.40;;
15055;SDS011;7626;42.674;23.284;2023-07-29T09:12:42;3.38;;;3.08;;
15055;SDS011;7626;42.674;23.284;2023-07-29T09:15:09;4.32;;;2.97;;
15055;SDS011;7626;42.674;23.284;2023-07-29T09:17:35;3.45;;;3.15;;
15055;SDS011;7626;42.674;23.284;2023-07-29T09:20:02;3.97;;;3.00;;
15055;SDS011;7626;42.674;23.284;2023-07-29T09:22:30;3.28;;;2.97;;
15055;SDS011;7626;42.674;23.284;2023-07-29T09:24:58;3.38;;;3.08;;
15055;SDS011;7626;42.674;23.284;2023-07-29T09:27:24;3.15;;;2.85;;
15055;SDS011;7626;42.674;23.284;2023-07-29T09:29:52;3.45;;;2.85;;
15055;SDS011;7626;42.674;23.284;2023-07-29T09:32:19;3.10;;;2.88;;
15055;SDS011;7626;42.674;23.284;2023-07-29T09:34:46;3.13;;;2.83;;
15055;SDS011;7626;42.674;23.284;2023-07-29T09:37:16;3.28;;;2.97;;
15055;SDS011;7626;42.674;23.284;2023-07-29T09:39:44;3.38;;;2.60;;
15055;SDS011;7626;42.674;23.284;2023-07-29T09:42:12;2.95;;;2.75;;
15055;SDS011;7626;42.674;23.284;2023-07-29T09:44:42;2.90;;;2.70;;
15055;SDS011;7626;42.674;23.284;2023-07-29T09:47:08;3.67;;;2.72;;
15055;SDS011;7626;42.674;23.284;2023-07-29T09:49:35;3.08;;;2.75;;
15055;SDS011;7626;42.674;23.284;2023-07-29T09:52:02;3.25;;;2.70;;
15055;SDS011;7626;42.674;23.284;2023-07-29T09:54:30;3.85;;;2.90;;
15055;SDS011;7626;42.674;23.284;2023-07-29T09:56:57;4.00;;;2.83;;
15055;SDS011;7626;42.674;23.284;2023-07-29T09:59:24;3.05;;;2.50;;
15055;SDS011;7626;42.674;23.284;2023-07-29T10:01:51;2.63;;;2.42;;
15055;SDS011;7626;42.674;23.284;2023-07-29T10:04:18;4.05;;;2.85;;
15055;SDS011;7626;42.674;23.284;2023-07-29T10:06:45;4.15;;;2.72;;
15055;SDS011;7626;42.674;23.284;2023-07-29T10:09:13;4.00;;;2.75;;
15055;SDS011;7626;42.674;23.284;2023-07-29T10:11:39;3.22;;;2.58;;
15055;SDS011;7626;42.674;23.284;2023-07-29T10:14:06;2.60;;;2.40;;
15055;SDS011;7626;42.674;23.284;2023-07-29T10:16:35;2.55;;;2.35;;
15055;SDS011;7626;42.674;23.284;2023-07-29T10:19:02;2.50;;;2.28;;
15055;SDS011;7626;42.674;23.284;2023-07-29T10:21:30;2.47;;;2.15;;
15055;SDS011;7626;42.674;23.284;2023-07-29T10:23:57;2.97;;;2.50;;
15055;SDS011;7626;42.674;23.284;2023-07-29T10:26:27;2.92;;;2.40;;
15055;SDS011;7626;42.674;23.284;2023-07-29T10:28:54;3.45;;;2.33;;
15055;SDS011;7626;42.674;23.284;2023-07-29T10:31:23;2.35;;;2.15;;
15055;SDS011;7626;42.674;23.284;2023-07-29T10:33:51;2.17;;;1.98;;
15055;SDS011;7626;42.674;23.284;2023-07-29T10:36:18;3.30;;;1.98;;
15055;SDS011;7626;42.674;23.284;2023-07-29T10:38:45;2.58;;;2.03;;
15055;SDS011;7626;42.674;23.284;2023-07-29T10:41:11;2.10;;;1.90;;
15055;SDS011;7626;42.674;23.284;2023-07-29T10:43:38;2.47;;;2.28;;
15055;SDS011;7626;42.674;23.284;2023-07-29T10:46:14;2.33;;;2.13;;
15055;SDS011;7626;42.674;23.284;2023-07-29T10:48:41;2.53;;;2.15;;
15055;SDS011;7626;42.674;23.284;2023-07-29T10:51:26;2.22;;;1.98;;
15055;SDS011;7626;42.674;23.284;2023-07-29T10:53:55;2.22;;;1.83;;
15055;SDS011;7626;42.674;23.284;2023-07-29T10:56:26;2.13;;;1.90;;
15055;SDS011;7626;42.674;23.284;2023-07-29T10:58:54;1.80;;;1.70;;
15055;SDS011;7626;42.674;23.284;2023-07-29T11:01:26;2.03;;;1.85;;
15055;SDS011;7626;42.674;23.284;2023-07-29T11:04:00;1.80;;;1.70;;
15055;SDS011;7626;42.674;23.284;2023-07-29T11:06:28;2.03;;;1.80;;
15055;SDS011;7626;42.674;23.284;2023-07-29T11:08:55;1.80;;;1.70;;
15055;SDS011;7626;42.674;23.284;2023-07-29T11:11:21;1.95;;;1.85;;
15055;SDS011;7626;42.674;23.284;2023-07-29T11:13:48;2.58;;;1.85;;
15055;SDS011;7626;42.674;23.284;2023-07-29T11:16:15;2.47;;;1.70;;
15055;SDS011;7626;42.674;23.284;2023-07-29T11:18:42;1.92;;;1.80;;
15055;SDS011;7626;42.674;23.284;2023-07-29T11:21:10;2.05;;;1.67;;
15055;SDS011;7626;42.674;23.284;2023-07-29T11:23:38;1.83;;;1.40;;
15055;SDS011;7626;42.674;23.284;2023-07-29T11:26:04;2.00;;;1.80;;
15055;SDS011;7626;42.674;23.284;2023-07-29T11:28:37;1.95;;;1.67;;
15055;SDS011;7626;42.674;23.284;2023-07-29T11:31:03;2.67;;;1.90;;
15055;SDS011;7626;42.674;23.284;2023-07-29T11:33:30;1.95;;;1.70;;
15055;SDS011;7626;42.674;23.284;2023-07-29T11:35:56;1.80;;;1.70;;
15055;SDS011;7626;42.674;23.284;2023-07-29T11:38:23;1.95;;;1.75;;
15055;SDS011;7626;42.674;23.284;2023-07-29T11:40:58;2.45;;;1.65;;
15055;SDS011;7626;42.674;23.284;2023-07-29T11:43:25;1.95;;;1.75;;
15055;SDS011;7626;42.674;23.284;2023-07-29T11:45:52;2.05;;;1.73;;
15055;SDS011;7626;42.674;23.284;2023-07-29T11:48:18;1.50;;;1.40;;
15055;SDS011;7626;42.674;23.284;2023-07-29T11:50:45;1.98;;;1.77;;
15055;SDS011;7626;42.674;23.284;2023-07-29T11:53:11;1.58;;;1.48;;
15055;SDS011;7626;42.674;23.284;2023-07-29T11:55:38;2.00;;;1.88;;
15055;SDS011;7626;42.674;23.284;2023-07-29T11:58:06;1.90;;;1.75;;
15055;SDS011;7626;42.674;23.284;2023-07-29T12:00:33;1.95;;;1.77;;
15055;SDS011;7626;42.674;23.284;2023-07-29T12:02:59;1.80;;;1.70;;
15055;SDS011;7626;42.674;23.284;2023-07-29T12:05:26;1.63;;;1.52;;
15055;SDS011;7626;42.674;23.284;2023-07-29T12:07:53;1.60;;;1.50;;
15055;SDS011;7626;42.674;23.284;2023-07-29T12:10:19;1.63;;;1.52;;
15055;SDS011;7626;42.674;23.284;2023-07-29T12:12:47;2.10;;;1.60;;
15055;SDS011;7626;42.674;23.284;2023-07-29T12:15:21;2.13;;;1.48;;
15055;SDS011;7626;42.674;23.284;2023-07-29T12:17:48;3.00;;;1.70;;
15055;SDS011;7626;42.674;23.284;2023-07-29T12:20:15;1.80;;;1.70;;
15055;SDS011;7626;42.674;23.284;2023-07-29T12:22:41;1.65;;;1.55;;
15055;SDS011;7626;42.674;23.284;2023-07-29T12:25:08;1.60;;;1.50;;
15055;SDS011;7626;42.674;23.284;2023-07-29T12:27:34;1.83;;;1.60;;
15055;SDS011;7626;42.674;23.284;2023-07-29T12:30:01;1.67;;;1.52;;
15055;SDS011;7626;42.674;23.284;2023-07-29T12:32:30;1.60;;;1.45;;
15055;SDS011;7626;42.674;23.284;2023-07-29T12:34:57;1.75;;;1.65;;
15055;SDS011;7626;42.674;23.284;2023-07-29T12:37:30;1.80;;;1.70;;
15055;SDS011;7626;42.674;23.284;2023-07-29T12:39:57;2.10;;;1.75;;
15055;SDS011;7626;42.674;23.284;2023-07-29T12:42:23;1.90;;;1.63;;
15055;SDS011;7626;42.674;23.284;2023-07-29T12:44:50;2.08;;;1.88;;
15055;SDS011;7626;42.674;23.284;2023-07-29T12:47:16;3.03;;;2.03;;
15055;SDS011;7626;42.674;23.284;2023-07-29T12:49:44;1.88;;;1.67;;
15055;SDS011;7626;42.674;23.284;2023-07-29T12:52:10;1.85;;;1.75;;
15055;SDS011;7626;42.674;23.284;2023-07-29T12:54:37;1.67;;;1.58;;
15055;SDS011;7626;42.674;23.284;2023-07-29T12:57:05;2.60;;;1.70;;
15055;SDS011;7626;42.674;23.284;2023-07-29T12:59:32;3.03;;;1.70;;
15055;SDS011;7626;42.674;23.284;2023-07-29T13:01:58;2.13;;;1.92;;
15055;SDS011;7626;42.674;23.284;2023-07-29T13:04:25;2.00;;;1.80;;
15055;SDS011;7626;42.674;23.284;2023-07-29T13:06:53;1.73;;;1.58;;
15055;SDS011;7626;42.674;23.284;2023-07-29T13:09:19;2.03;;;1.60;;
15055;SDS011;7626;42.674;23.284;2023-07-29T13:11:46;1.50;;;1.40;;
15055;SDS011;7626;42.674;23.284;2023-07-29T13:14:12;1.67;;;1.58;;
15055;SDS011;7626;42.674;23.284;2023-07-29T13:16:39;1.70;;;1.50;;
15055;SDS011;7626;42.674;23.284;2023-07-29T13:19:05;2.03;;;1.83;;
15055;SDS011;7626;42.674;23.284;2023-07-29T13:21:32;1.50;;;1.40;;
15055;SDS011;7626;42.674;23.284;2023-07-29T13:24:00;1.60;;;1.45;;
15055;SDS011;7626;42.674;23.284;2023-07-29T13:26:26;1.98;;;1.88;;
15055;SDS011;7626;42.674;23.284;2023-07-29T13:28:53;1.50;;;1.40;;
15055;SDS011;7626;42.674;23.284;2023-07-29T13:31:20;1.70;;;1.60;;
15055;SDS011;7626;42.674;23.284;2023-07-29T13:33:47;1.88;;;1.75;;
15055;SDS011;7626;42.674;23.284;2023-07-29T13:36:13;1.45;;;1.35;;
15055;SDS011;7626;42.674;23.284;2023-07-29T13:38:40;2.00;;;1.80;;
15055;SDS011;7626;42.674;23.284;2023-07-29T13:41:08;1.52;;;1.42;;
15055;SDS011;7626;42.674;23.284;2023-07-29T13:43:35;1.83;;;1.60;;
15055;SDS011;7626;42.674;23.284;2023-07-29T13:46:01;1.80;;;1.60;;
15055;SDS011;7626;42.674;23.284;2023-07-29T13:48:28;1.58;;;1.48;;
15055;SDS011;7626;42.674;23.284;2023-07-29T13:50:54;1.70;;;1.60;;
15055;SDS011;7626;42.674;23.284;2023-07-29T13:53:21;1.80;;;1.58;;
15055;SDS011;7626;42.674;23.284;2023-07-29T13:55:47;1.65;;;1.55;;
15055;SDS011;7626;42.674;23.284;2023-07-29T13:58:15;1.77;;;1.67;;
15055;SDS011;7626;42.674;23.284;2023-07-29T14:00:42;1.90;;;1.70;;
15055;SDS011;7626;42.674;23.284;2023-07-29T14:03:08;1.70;;;1.58;;
15055;SDS011;7626;42.674;23.284;2023-07-29T14:05:35;2.20;;;2.00;;
15055;SDS011;7626;42.674;23.284;2023-07-29T14:08:01;2.10;;;1.90;;
15055;SDS011;7626;42.674;23.284;2023-07-29T14:10:28;2.03;;;1.77;;
15055;SDS011;7626;42.674;23.284;2023-07-29T14:12:54;1.80;;;1.70;;
15055;SDS011;7626;42.674;23.284;2023-07-29T14:15:22;1.80;;;1.70;;
15055;SDS011;7626;42.674;23.284;2023-07-29T14:17:49;1.80;;;1.70;;
15055;SDS011;7626;42.674;23.284;2023-07-29T14:20:15;2.03;;;1.80;;
15055;SDS011;7626;42.674;23.284;2023-07-29T14:22:42;1.92;;;1.75;;
15055;SDS011;7626;42.674;23.284;2023-07-29T14:25:08;2.15;;;1.77;;
15055;SDS011;7626;42.674;23.284;2023-07-29T14:27:35;2.50;;;1.90;;
15055;SDS011;7626;42.674;23.284;2023-07-29T14:30:01;2.22;;;2.03;;
15055;SDS011;7626;42.674;23.284;2023-07-29T14:32:29;1.90;;;1.80;;
15055;SDS011;7626;42.674;23.284;2023-07-29T14:34:56;2.45;;;1.90;;
15055;SDS011;7626;42.674;23.284;2023-07-29T14:37:22;2.05;;;1.90;;
15055;SDS011;7626;42.674;23.284;2023-07-29T14:39:49;2.20;;;2.00;;
15055;SDS011;7626;42.674;23.284;2023-07-29T14:42:15;2.05;;;1.80;;
15055;SDS011;7626;42.674;23.284;2023-07-29T14:44:42;1.80;;;1.70;;
15055;SDS011;7626;42.674;23.284;2023-07-29T14:47:08;1.95;;;1.75;;